Calmar/Wizard Lake Airport

CWL3 · Alberta, Canada

METAR anciennes CWL3 · Calmar/Wizard Lake Airport

Tu vois ci-dessous les METAR des derniers jours. Sélectionne une année pour parcourir les METAR plus anciens, à partir de l'année 2007.

22 avril 2024

Temps Code Temps Temp. Vue Base cloud Vent METAR/SPECI
01:00
V
9 °C 20 mi 6.900 ft 290° 290° 23 - 31 kt METAR CYEG 220700Z 29023G31KT 20SM OVC069 09/M04 A2970 RMK AC8 MOON DIMLY VISBL SLP072 DENSITY ALT 2600FT
00:00
V
10 °C 20 mi 5.900 ft 290° 290° 16 - 22 kt METAR CYEG 220600Z 29016G22KT 20SM OVC059 10/M04 A2970 RMK SC8 VIRGA OHD SLP071 DENSITY ALT 2600FT

21 avril 2024

Temps Code Temps Temp. Vue Base cloud Vent METAR/SPECI
23:00
V
10 °C 20 mi 7.300 ft 290° 290° 21 - 33 kt METAR CYEG 220500Z 29021G33KT 20SM OVC073 10/M03 A2969 RMK AC8 VIRGA MOON DIMLY VISBL SLP069 DENSITY ALT 2600FT
22:00
V
9 °C 20 mi 7.800 ft 300° 300° 21 - 27 kt METAR CYEG 220400Z 30021G27KT 20SM OVC078 09/M02 A2969 RMK AC8 VIRGA SLP072 DENSITY ALT 2600FT
21:00
V
9 °C 20 mi 7.000 ft 300° 300° 20 - 29 kt METAR CYEG 220300Z 30020G29KT 20SM OVC070 09/M01 A2969 RMK AC8 VIRGA SLP074 DENSITY ALT 2600FT
20:00
V
10 °C 20 mi 9.000 ft 290° 290° 26 - 38 kt METAR CYEG 220200Z 29026G38KT 20SM FEW048 OVC090 10/M01 A2966 RMK SC1AC8 SC TR VIRGA SLP066 DENSITY ALT 2700FT
19:12
V
10 °C 20 mi 7.300 ft 290° 290° 15 - 26 kt METAR CYEG 220112Z 29015G26KT 20SM SCT048 BKN073 OVC130 10/00 A2966 RMK SC4AC1AS3 VIRGA SUN DIMLY VISBL SLP069 DENSITY ALT 2600FT
19:00
V
9 °C 20 mi 13.000 ft 290° 290° 17 - 26 kt METAR CYEG 220100Z 29017G26KT 20SM -SHRA SCT048 SCT073 BKN130 09/01 A2966 RMK SC3AC1AS3 CVCTV CLD EMBD SLP071 DENSITY ALT 2600FT
18:00
V
10 °C 20 mi 5.300 ft 300° 300° 19 - 32 kt METAR CYEG 220000Z 30019G32KT 20SM -SHRA BKN053 OVC073 10/01 A2967 RMK SC7AC1 CVCTV CLD EMBD SLP072 DENSITY ALT 2700FT
17:00
V
12 °C 20 mi 5.500 ft 310° 310° 13 - 27 kt METAR CYEG 212300Z 31013G27KT 20SM -SHRA BKN055 OVC073 12/M03 A2964 RMK SC7AC1 CVCTV CLD EMBD SLP061 DENSITY ALT 2900FT
16:56
V
12 °C 20 mi 5.700 ft 330° 330° 21 - 27 kt METAR CYEG 212256Z 33021G27KT 20SM -SHRA BKN057 OVC073 12/M03 A2964 RMK SC7AC1 CVCTV CLD EMBD SLP061 DENSITY ALT 2900FT
16:00
V
13 °C 20 mi 9.200 ft 330° 330° 23 - 33 kt METAR CYEG 212200Z 33023G33KT 20SM SCT073 OVC092 13/M05 A2963 RMK AC4AC4 SLP054 DENSITY ALT 3100FT
15:00
V
13 °C 20 mi 9.500 ft 300° 300° 24 - 30 kt METAR CYEG 212100Z 30024G30KT 20SM FEW060 BKN095 13/M04 A2962 RMK SC2AS5 SLP049 DENSITY ALT 3100FT
14:00
V
12 °C 20 mi 6.000 ft 300° 300° 20 - 30 kt METAR CYEG 212000Z 30020G30KT 20SM BKN060 OVC071 12/M04 A2962 RMK SC7AC1 VIRGA OHD SLP050 DENSITY ALT 3000FT
13:00
V
11 °C 20 mi 6.000 ft 300° 300° 22 - 29 kt METAR CYEG 211900Z 30022G29KT 20SM BKN060 OVC084 11/M04 A2962 RMK SC6AC2 VIRGA OHD SLP050 DENSITY ALT 2900FT
12:00
V
11 °C 20 mi 8.400 ft 290° 290° 18 - 24 kt METAR CYEG 211800Z 29018G24KT 20SM BKN084 OVC100 11/M03 A2962 RMK AC7AC1 VIRGA ALQDS SLP050 DENSITY ALT 2800FT
11:00
V
9 °C 20 mi 8.500 ft 290° 290° 14 kt METAR CYEG 211700Z 29014KT 20SM BKN085 BKN100 09/M04 A2964 RMK AC5AC2 VIRGA OHD SLP057 DENSITY ALT 2600FT
10:00
V
7 °C 20 mi 10.000 ft 280° 280° 12 - 18 kt METAR CYEG 211600Z 28012G18KT 20SM BKN100 BKN160 07/M05 A2965 RMK AC6AC1 VIRGA E SLP063
09:00
V
4 °C 20 mi 9.600 ft 270° 270° 8 kt METAR CYEG 211500Z 27008KT 20SM BKN096 BKN160 04/M05 A2966 RMK AC7AC1 UPR AC TR SLP068
08:00
V
2 °C 20 mi 10.000 ft 200° 200° 5 kt METAR CYEG 211400Z 20005KT 20SM BKN100 BKN160 02/M06 A2966 RMK AC5AC2 PRESFR SLP067
07:00
V
-2 °C 20 mi 16.000 ft 180° 180° 4 kt METAR CYEG 211300Z 18004KT 160V290 20SM FEW110 BKN160 M02/M07 A2969 RMK AC2AC4 SLP079
06:00
V
-2 °C 20 mi - 160° 160° 7 kt METAR CYEG 211200Z 16007KT 20SM FEW160 FEW220 M02/M07 A2971 RMK AC1CI1 CI TR SLP085
05:00
V
0 °C 20 mi - 160° 160° 9 kt METAR CYEG 211100Z 16009KT 20SM FEW160 FEW220 00/M07 A2974 RMK AC1CI2 AC TR SLP093
04:00
V
0 °C 20 mi - 130° 130° 11 kt METAR CYEG 211000Z 13011KT 20SM FEW230 M00/M07 A2977 RMK CI1 CI TR AURBO SLP102
03:00
V
1 °C 20 mi - 130° 130° 13 kt METAR CYEG 210900Z 13013KT 20SM FEW160 01/M07 A2979 RMK AC1 AURBO SLP111
02:00
V
2 °C 20 mi - 130° 130° 12 kt METAR CYEG 210800Z 13012KT 20SM FEW160 02/M07 A2983 RMK AC1 AC TR SLP125
01:39
V
2 °C 20 mi - 130° 130° 14 kt METAR CYEG 210739Z 13014KT 20SM FEW250 02/M07 A2984 RMK CI1 CI TR SLP129
01:00
V
3 °C 20 mi - 140° 140° 14 kt METAR CYEG 210700Z 14014KT 20SM SKC 03/M07 A2987 RMK SLP137
00:00
V
4 °C 20 mi - 140° 140° 13 - 19 kt METAR CYEG 210600Z 14013G19KT 20SM SKC 04/M07 A2990 RMK SLP148

20 avril 2024

Temps Code Temps Temp. Vue Base cloud Vent METAR/SPECI
23:00
V
4 °C 20 mi - 140° 140° 13 kt METAR CYEG 210500Z 14013KT 20SM SKC 04/M08 A2994 RMK SLP162
22:00
V
5 °C 20 mi - 140° 140° 11 kt METAR CYEG 210400Z 14011KT 20SM SKC 05/M08 A2998 RMK SLP176
21:00
V
7 °C 20 mi - 150° 150° 12 kt METAR CYEG 210300Z 15012KT 20SM SKC 07/M08 A3000 RMK SLP185
20:00
V
10 °C 20 mi - 150° 150° 13 - 21 kt METAR CYEG 210200Z 15013G21KT 20SM SKC 10/M10 A3001 RMK SLP191
19:00
V
12 °C 20 mi - 150° 150° 13 - 22 kt METAR CYEG 210100Z 15013G22KT 20SM SKC 12/M11 A3005 RMK SLP203
18:00
V
13 °C 20 mi - 150° 150° 16 - 25 kt METAR CYEG 210000Z 15016G25KT 20SM SKC 13/M12 A3007 RMK SLP213
17:00
V
13 °C 20 mi - 160° 160° 12 - 18 kt METAR CYEG 202300Z 16012G18KT 20SM SKC 13/M13 A3012 RMK SLP228
16:00
V
13 °C 20 mi - 140° 140° 16 - 21 kt METAR CYEG 202200Z 14016G21KT 20SM SKC 13/M13 A3015 RMK SLP241
15:00
V
12 °C 20 mi - 180° 180° 12 - 22 kt METAR CYEG 202100Z 18012G22KT 20SM FEW250 12/M12 A3019 RMK CI1 CI TR SLP255
14:00
V
11 °C 20 mi - 150° 150° 14 - 20 kt METAR CYEG 202000Z 15014G20KT 20SM SKC 11/M12 A3021 RMK SLP264
13:00
V
10 °C 20 mi - 180° 180° 12 - 20 kt METAR CYEG 201900Z 18012G20KT 20SM SKC 10/M09 A3024 RMK SLP276
12:00
V
9 °C 20 mi - 190° 190° 12 kt METAR CYEG 201800Z 19012KT 20SM SKC 09/M09 A3027 RMK SLP285
11:00
V
6 °C 20 mi - 170° 170° 15 kt METAR CYEG 201700Z 17015KT 20SM SKC 06/M09 A3028 RMK SLP291
10:00
V
5 °C 20 mi - 180° 180° 13 kt METAR CYEG 201600Z 18013KT 20SM SKC 05/M08 A3030 RMK SLP295
09:00
V
2 °C 20 mi - 170° 170° 8 kt METAR CYEG 201500Z 17008KT 20SM FEW250 02/M08 A3032 RMK CI1 CI TR SLP301
08:00
V
-1 °C 20 mi - 180° 180° 7 kt METAR CYEG 201400Z 18007KT 20SM SKC M01/M09 A3033 RMK SLP305
07:00
V
-4 °C 20 mi - 160° 160° 7 kt METAR CYEG 201300Z 16007KT 20SM FEW220 M04/M12 A3034 RMK CI1 CI TR SLP309
06:00
V
-5 °C 20 mi - 170° 170° 6 kt METAR CYEG 201200Z 17006KT 20SM FEW220 M05/M13 A3034 RMK CI1 CI TR SLP312=
05:00
V
-6 °C 20 mi - 170° 170° 7 kt METAR CYEG 201100Z 17007KT 20SM SKC M06/M13 A3035 RMK SLP315=
04:00
V
-6 °C 20 mi - 180° 180° 7 kt METAR CYEG 201000Z 18007KT 20SM SKC M06/M13 A3036 RMK AURBO SLP318=
03:00
V
-8 °C 20 mi - 190° 190° 5 kt METAR CYEG 200900Z 19005KT 20SM SKC M08/M13 A3037 RMK SLP326=
02:00
V
-7 °C 20 mi - 180° 180° 6 kt METAR CYEG 200800Z 18006KT 20SM SKC M07/M12 A3038 RMK AURBO SLP330=
01:00
V
-8 °C 20 mi - 180° 180° 4 kt METAR CYEG 200700Z 18004KT 20SM SKC M08/M12 A3040 RMK AURBO SLP336=
00:00
V
-8 °C 20 mi - 200° 200° 6 kt METAR CYEG 200600Z 20006KT 20SM SKC M08/M12 A3040 RMK SLP338=
Signaler les modifications